sensor_id;sensor_type;location;lat;lon;timestamp;P1;durP1;ratioP1;P2;durP2;ratioP2
16346;SDS011;8283;48.504;13.734;2023-02-28T00:02:43;3.95;;;2.35;;
16346;SDS011;8283;48.504;13.734;2023-02-28T00:05:28;3.03;;;2.67;;
16346;SDS011;8283;48.504;13.734;2023-02-28T00:08:13;2.35;;;1.60;;
16346;SDS011;8283;48.504;13.734;2023-02-28T00:11:08;3.60;;;2.05;;
16346;SDS011;8283;48.504;13.734;2023-02-28T00:13:54;2.55;;;2.00;;
16346;SDS011;8283;48.504;13.734;2023-02-28T00:16:38;2.78;;;2.38;;
16346;SDS011;8283;48.504;13.734;2023-02-28T00:19:22;3.88;;;2.22;;
16346;SDS011;8283;48.504;13.734;2023-02-28T00:22:07;4.03;;;2.33;;
16346;SDS011;8283;48.504;13.734;2023-02-28T00:24:51;4.03;;;2.50;;
16346;SDS011;8283;48.504;13.734;2023-02-28T00:27:36;2.40;;;1.80;;
16346;SDS011;8283;48.504;13.734;2023-02-28T00:30:22;4.88;;;2.08;;
16346;SDS011;8283;48.504;13.734;2023-02-28T00:33:07;3.20;;;2.30;;
16346;SDS011;8283;48.504;13.734;2023-02-28T00:35:52;2.50;;;2.15;;
16346;SDS011;8283;48.504;13.734;2023-02-28T00:38:47;4.13;;;2.30;;
16346;SDS011;8283;48.504;13.734;2023-02-28T00:41:31;3.05;;;2.30;;
16346;SDS011;8283;48.504;13.734;2023-02-28T00:44:15;4.40;;;2.75;;
16346;SDS011;8283;48.504;13.734;2023-02-28T00:47:00;3.85;;;2.40;;
16346;SDS011;8283;48.504;13.734;2023-02-28T00:49:44;3.53;;;2.20;;
16346;SDS011;8283;48.504;13.734;2023-02-28T00:52:28;4.32;;;2.72;;
16346;SDS011;8283;48.504;13.734;2023-02-28T00:55:13;3.65;;;2.45;;
16346;SDS011;8283;48.504;13.734;2023-02-28T00:57:58;4.30;;;2.28;;
16346;SDS011;8283;48.504;13.734;2023-02-28T01:00:43;4.47;;;2.35;;
16346;SDS011;8283;48.504;13.734;2023-02-28T01:03:32;2.88;;;2.25;;
16346;SDS011;8283;48.504;13.734;2023-02-28T01:06:17;3.63;;;2.50;;
16346;SDS011;8283;48.504;13.734;2023-02-28T01:09:01;3.03;;;2.45;;
16346;SDS011;8283;48.504;13.734;2023-02-28T01:11:46;4.55;;;2.75;;
16346;SDS011;8283;48.504;13.734;2023-02-28T01:14:31;3.25;;;2.13;;
16346;SDS011;8283;48.504;13.734;2023-02-28T01:17:15;4.78;;;2.30;;
16346;SDS011;8283;48.504;13.734;2023-02-28T01:19:59;3.13;;;2.33;;
16346;SDS011;8283;48.504;13.734;2023-02-28T01:22:44;5.15;;;2.60;;
16346;SDS011;8283;48.504;13.734;2023-02-28T01:25:28;3.50;;;2.00;;
16346;SDS011;8283;48.504;13.734;2023-02-28T01:28:12;3.95;;;2.60;;
16346;SDS011;8283;48.504;13.734;2023-02-28T01:30:56;3.78;;;2.90;;
16346;SDS011;8283;48.504;13.734;2023-02-28T01:33:41;3.90;;;2.60;;
16346;SDS011;8283;48.504;13.734;2023-02-28T01:36:25;3.95;;;2.17;;
16346;SDS011;8283;48.504;13.734;2023-02-28T01:39:10;2.90;;;2.05;;
16346;SDS011;8283;48.504;13.734;2023-02-28T01:41:56;3.60;;;2.25;;
16346;SDS011;8283;48.504;13.734;2023-02-28T01:47:43;3.95;;;2.47;;
16346;SDS011;8283;48.504;13.734;2023-02-28T01:50:31;3.25;;;2.25;;
16346;SDS011;8283;48.504;13.734;2023-02-28T01:53:21;2.72;;;2.28;;
16346;SDS011;8283;48.504;13.734;2023-02-28T01:56:16;2.92;;;2.05;;
16346;SDS011;8283;48.504;13.734;2023-02-28T01:59:07;2.85;;;2.20;;
16346;SDS011;8283;48.504;13.734;2023-02-28T02:01:51;2.72;;;2.05;;
16346;SDS011;8283;48.504;13.734;2023-02-28T02:04:38;4.80;;;3.10;;
16346;SDS011;8283;48.504;13.734;2023-02-28T02:07:32;3.33;;;2.42;;
16346;SDS011;8283;48.504;13.734;2023-02-28T02:10:29;3.05;;;2.58;;
16346;SDS011;8283;48.504;13.734;2023-02-28T02:28:27;3.05;;;2.60;;
16346;SDS011;8283;48.504;13.734;2023-02-28T02:34:26;3.50;;;2.30;;
16346;SDS011;8283;48.504;13.734;2023-02-28T02:40:13;5.75;;;2.60;;
16346;SDS011;8283;48.504;13.734;2023-02-28T02:45:52;5.55;;;2.88;;
16346;SDS011;8283;48.504;13.734;2023-02-28T02:48:40;3.30;;;2.15;;
16346;SDS011;8283;48.504;13.734;2023-02-28T02:51:27;2.95;;;2.13;;
16346;SDS011;8283;48.504;13.734;2023-02-28T02:54:23;3.58;;;2.22;;
16346;SDS011;8283;48.504;13.734;2023-02-28T02:57:17;3.22;;;2.33;;
16346;SDS011;8283;48.504;13.734;2023-02-28T03:00:07;3.75;;;2.50;;
16346;SDS011;8283;48.504;13.734;2023-02-28T03:02:54;2.85;;;2.03;;
16346;SDS011;8283;48.504;13.734;2023-02-28T03:08:28;3.80;;;2.55;;
16346;SDS011;8283;48.504;13.734;2023-02-28T03:11:17;4.20;;;2.28;;
16346;SDS011;8283;48.504;13.734;2023-02-28T03:17:00;3.65;;;2.58;;
16346;SDS011;8283;48.504;13.734;2023-02-28T03:19:55;3.13;;;2.20;;
16346;SDS011;8283;48.504;13.734;2023-02-28T03:23:03;3.55;;;2.40;;
16346;SDS011;8283;48.504;13.734;2023-02-28T03:26:04;3.38;;;2.22;;
16346;SDS011;8283;48.504;13.734;2023-02-28T03:31:54;3.70;;;2.35;;
16346;SDS011;8283;48.504;13.734;2023-02-28T03:34:46;2.67;;;2.05;;
16346;SDS011;8283;48.504;13.734;2023-02-28T03:37:44;4.05;;;2.55;;
16346;SDS011;8283;48.504;13.734;2023-02-28T03:40:30;3.88;;;1.98;;
16346;SDS011;8283;48.504;13.734;2023-02-28T03:43:22;3.25;;;2.08;;
16346;SDS011;8283;48.504;13.734;2023-02-28T03:46:12;4.97;;;2.90;;
16346;SDS011;8283;48.504;13.734;2023-02-28T03:51:47;3.58;;;2.45;;
16346;SDS011;8283;48.504;13.734;2023-02-28T03:54:35;7.60;;;3.47;;
16346;SDS011;8283;48.504;13.734;2023-02-28T03:57:41;3.60;;;2.10;;
16346;SDS011;8283;48.504;13.734;2023-02-28T04:00:38;4.97;;;2.47;;
16346;SDS011;8283;48.504;13.734;2023-02-28T04:03:32;5.65;;;2.75;;
16346;SDS011;8283;48.504;13.734;2023-02-28T04:06:18;5.35;;;3.20;;
16346;SDS011;8283;48.504;13.734;2023-02-28T04:09:04;6.03;;;3.05;;
16346;SDS011;8283;48.504;13.734;2023-02-28T04:11:50;4.32;;;2.60;;
16346;SDS011;8283;48.504;13.734;2023-02-28T04:14:36;3.63;;;2.35;;
16346;SDS011;8283;48.504;13.734;2023-02-28T04:17:20;5.97;;;3.05;;
16346;SDS011;8283;48.504;13.734;2023-02-28T04:20:04;5.88;;;3.15;;
16346;SDS011;8283;48.504;13.734;2023-02-28T04:22:53;4.53;;;3.00;;
16346;SDS011;8283;48.504;13.734;2023-02-28T04:25:37;5.55;;;3.10;;
16346;SDS011;8283;48.504;13.734;2023-02-28T04:28:23;4.47;;;2.38;;
16346;SDS011;8283;48.504;13.734;2023-02-28T04:31:08;4.35;;;2.72;;
16346;SDS011;8283;48.504;13.734;2023-02-28T04:33:53;4.43;;;2.47;;
16346;SDS011;8283;48.504;13.734;2023-02-28T04:36:38;5.70;;;2.90;;
16346;SDS011;8283;48.504;13.734;2023-02-28T04:39:23;3.55;;;2.35;;
16346;SDS011;8283;48.504;13.734;2023-02-28T04:42:08;4.07;;;2.58;;
16346;SDS011;8283;48.504;13.734;2023-02-28T04:44:53;3.92;;;2.45;;
16346;SDS011;8283;48.504;13.734;2023-02-28T04:47:37;5.38;;;3.10;;
16346;SDS011;8283;48.504;13.734;2023-02-28T04:50:22;4.95;;;3.40;;
16346;SDS011;8283;48.504;13.734;2023-02-28T04:53:06;5.00;;;3.50;;
16346;SDS011;8283;48.504;13.734;2023-02-28T04:55:50;5.05;;;3.13;;
16346;SDS011;8283;48.504;13.734;2023-02-28T04:58:34;6.28;;;3.58;;
16346;SDS011;8283;48.504;13.734;2023-02-28T05:01:21;5.68;;;3.80;;
16346;SDS011;8283;48.504;13.734;2023-02-28T05:04:08;4.43;;;3.00;;
16346;SDS011;8283;48.504;13.734;2023-02-28T05:06:53;4.07;;;2.78;;
16346;SDS011;8283;48.504;13.734;2023-02-28T05:09:37;4.68;;;2.80;;
16346;SDS011;8283;48.504;13.734;2023-02-28T05:12:21;3.75;;;2.70;;
16346;SDS011;8283;48.504;13.734;2023-02-28T05:15:06;5.35;;;2.90;;
16346;SDS011;8283;48.504;13.734;2023-02-28T05:17:52;4.38;;;2.47;;
16346;SDS011;8283;48.504;13.734;2023-02-28T05:20:36;5.40;;;2.95;;
16346;SDS011;8283;48.504;13.734;2023-02-28T05:23:21;5.55;;;3.05;;
16346;SDS011;8283;48.504;13.734;2023-02-28T05:26:07;5.10;;;2.90;;
16346;SDS011;8283;48.504;13.734;2023-02-28T05:28:51;4.00;;;2.88;;
16346;SDS011;8283;48.504;13.734;2023-02-28T05:31:36;4.30;;;2.83;;
16346;SDS011;8283;48.504;13.734;2023-02-28T05:34:20;3.33;;;2.45;;
16346;SDS011;8283;48.504;13.734;2023-02-28T05:37:06;4.63;;;2.45;;
16346;SDS011;8283;48.504;13.734;2023-02-28T05:39:54;3.95;;;2.42;;
16346;SDS011;8283;48.504;13.734;2023-02-28T05:42:39;4.55;;;2.83;;
16346;SDS011;8283;48.504;13.734;2023-02-28T05:45:23;5.00;;;3.05;;
16346;SDS011;8283;48.504;13.734;2023-02-28T05:48:07;4.50;;;2.30;;
16346;SDS011;8283;48.504;13.734;2023-02-28T05:50:51;4.03;;;2.70;;
16346;SDS011;8283;48.504;13.734;2023-02-28T05:53:36;4.22;;;2.60;;
16346;SDS011;8283;48.504;13.734;2023-02-28T05:56:20;4.32;;;2.70;;
16346;SDS011;8283;48.504;13.734;2023-02-28T05:59:05;5.03;;;3.10;;
16346;SDS011;8283;48.504;13.734;2023-02-28T06:01:49;3.78;;;2.45;;
16346;SDS011;8283;48.504;13.734;2023-02-28T06:04:34;4.90;;;2.50;;
16346;SDS011;8283;48.504;13.734;2023-02-28T06:07:18;4.47;;;2.92;;
16346;SDS011;8283;48.504;13.734;2023-02-28T06:10:02;5.03;;;2.97;;
16346;SDS011;8283;48.504;13.734;2023-02-28T06:12:47;4.15;;;2.05;;
16346;SDS011;8283;48.504;13.734;2023-02-28T06:15:31;3.90;;;2.78;;
16346;SDS011;8283;48.504;13.734;2023-02-28T06:18:16;3.72;;;2.50;;
16346;SDS011;8283;48.504;13.734;2023-02-28T06:21:00;4.45;;;2.83;;
16346;SDS011;8283;48.504;13.734;2023-02-28T06:23:44;5.00;;;3.10;;
16346;SDS011;8283;48.504;13.734;2023-02-28T06:26:29;4.25;;;2.92;;
16346;SDS011;8283;48.504;13.734;2023-02-28T06:29:14;3.65;;;2.88;;
16346;SDS011;8283;48.504;13.734;2023-02-28T06:32:02;4.10;;;2.80;;
16346;SDS011;8283;48.504;13.734;2023-02-28T06:34:46;3.78;;;2.45;;
16346;SDS011;8283;48.504;13.734;2023-02-28T06:37:31;6.28;;;2.70;;
16346;SDS011;8283;48.504;13.734;2023-02-28T06:40:16;4.68;;;3.00;;
16346;SDS011;8283;48.504;13.734;2023-02-28T06:43:00;5.40;;;2.30;;
16346;SDS011;8283;48.504;13.734;2023-02-28T06:45:45;5.03;;;2.60;;
16346;SDS011;8283;48.504;13.734;2023-02-28T06:48:29;5.18;;;2.85;;
16346;SDS011;8283;48.504;13.734;2023-02-28T06:51:15;4.38;;;2.90;;
16346;SDS011;8283;48.504;13.734;2023-02-28T06:54:01;5.10;;;2.83;;
16346;SDS011;8283;48.504;13.734;2023-02-28T06:56:45;6.03;;;3.28;;
16346;SDS011;8283;48.504;13.734;2023-02-28T06:59:31;6.03;;;3.47;;
16346;SDS011;8283;48.504;13.734;2023-02-28T07:02:15;3.78;;;2.22;;
16346;SDS011;8283;48.504;13.734;2023-02-28T07:05:00;4.20;;;2.65;;
16346;SDS011;8283;48.504;13.734;2023-02-28T07:07:44;6.20;;;2.88;;
16346;SDS011;8283;48.504;13.734;2023-02-28T07:10:30;8.68;;;4.93;;
16346;SDS011;8283;48.504;13.734;2023-02-28T07:13:15;7.03;;;3.30;;
16346;SDS011;8283;48.504;13.734;2023-02-28T07:16:00;6.32;;;3.40;;
16346;SDS011;8283;48.504;13.734;2023-02-28T07:18:47;7.88;;;3.95;;
16346;SDS011;8283;48.504;13.734;2023-02-28T07:21:31;4.53;;;3.10;;
16346;SDS011;8283;48.504;13.734;2023-02-28T07:24:16;9.77;;;3.72;;
16346;SDS011;8283;48.504;13.734;2023-02-28T07:27:01;3.83;;;2.85;;
16346;SDS011;8283;48.504;13.734;2023-02-28T07:29:46;6.03;;;3.25;;
16346;SDS011;8283;48.504;13.734;2023-02-28T07:32:30;5.07;;;3.92;;
16346;SDS011;8283;48.504;13.734;2023-02-28T07:35:15;5.90;;;3.30;;
16346;SDS011;8283;48.504;13.734;2023-02-28T07:37:59;3.92;;;2.75;;
16346;SDS011;8283;48.504;13.734;2023-02-28T07:40:44;4.57;;;3.28;;
16346;SDS011;8283;48.504;13.734;2023-02-28T07:43:29;7.72;;;4.10;;
16346;SDS011;8283;48.504;13.734;2023-02-28T07:46:14;5.95;;;3.35;;
16346;SDS011;8283;48.504;13.734;2023-02-28T07:49:00;7.90;;;5.47;;
16346;SDS011;8283;48.504;13.734;2023-02-28T07:51:46;6.82;;;4.18;;
16346;SDS011;8283;48.504;13.734;2023-02-28T07:54:31;4.88;;;3.15;;
16346;SDS011;8283;48.504;13.734;2023-02-28T07:57:16;6.75;;;4.07;;
16346;SDS011;8283;48.504;13.734;2023-02-28T08:00:02;5.45;;;3.72;;
16346;SDS011;8283;48.504;13.734;2023-02-28T08:02:55;7.03;;;4.55;;
16346;SDS011;8283;48.504;13.734;2023-02-28T08:05:39;8.20;;;4.85;;
16346;SDS011;8283;48.504;13.734;2023-02-28T08:08:24;5.00;;;3.47;;
16346;SDS011;8283;48.504;13.734;2023-02-28T08:11:13;6.35;;;3.67;;
16346;SDS011;8283;48.504;13.734;2023-02-28T08:13:58;4.90;;;3.60;;
16346;SDS011;8283;48.504;13.734;2023-02-28T08:16:42;6.38;;;3.85;;
16346;SDS011;8283;48.504;13.734;2023-02-28T08:19:27;5.57;;;3.60;;
16346;SDS011;8283;48.504;13.734;2023-02-28T08:22:11;5.43;;;3.88;;
16346;SDS011;8283;48.504;13.734;2023-02-28T08:24:56;6.07;;;3.60;;
16346;SDS011;8283;48.504;13.734;2023-02-28T08:27:40;5.88;;;3.92;;
16346;SDS011;8283;48.504;13.734;2023-02-28T08:30:26;7.60;;;4.25;;
16346;SDS011;8283;48.504;13.734;2023-02-28T08:33:11;6.95;;;3.95;;
16346;SDS011;8283;48.504;13.734;2023-02-28T08:35:55;5.63;;;3.80;;
16346;SDS011;8283;48.504;13.734;2023-02-28T08:38:40;7.22;;;3.85;;
16346;SDS011;8283;48.504;13.734;2023-02-28T08:41:24;5.82;;;4.35;;
16346;SDS011;8283;48.504;13.734;2023-02-28T08:44:09;6.20;;;3.83;;
16346;SDS011;8283;48.504;13.734;2023-02-28T08:46:53;5.45;;;4.05;;
16346;SDS011;8283;48.504;13.734;2023-02-28T08:49:38;6.18;;;4.28;;
16346;SDS011;8283;48.504;13.734;2023-02-28T08:52:22;7.70;;;4.72;;
16346;SDS011;8283;48.504;13.734;2023-02-28T08:55:06;7.05;;;4.70;;
16346;SDS011;8283;48.504;13.734;2023-02-28T08:57:51;6.53;;;4.75;;
16346;SDS011;8283;48.504;13.734;2023-02-28T09:00:36;6.63;;;4.32;;
16346;SDS011;8283;48.504;13.734;2023-02-28T09:03:20;8.55;;;5.68;;
16346;SDS011;8283;48.504;13.734;2023-02-28T09:06:06;6.40;;;5.15;;
16346;SDS011;8283;48.504;13.734;2023-02-28T09:08:52;13.20;;;7.40;;
16346;SDS011;8283;48.504;13.734;2023-02-28T09:11:37;8.68;;;5.88;;
16346;SDS011;8283;48.504;13.734;2023-02-28T09:14:21;7.38;;;5.30;;
16346;SDS011;8283;48.504;13.734;2023-02-28T09:17:06;9.10;;;5.43;;
16346;SDS011;8283;48.504;13.734;2023-02-28T09:19:50;7.05;;;5.53;;
16346;SDS011;8283;48.504;13.734;2023-02-28T09:22:34;7.40;;;5.68;;
16346;SDS011;8283;48.504;13.734;2023-02-28T09:25:19;7.82;;;5.30;;
16346;SDS011;8283;48.504;13.734;2023-02-28T09:28:03;8.60;;;5.03;;
16346;SDS011;8283;48.504;13.734;2023-02-28T09:30:51;6.78;;;4.85;;
16346;SDS011;8283;48.504;13.734;2023-02-28T09:33:37;7.63;;;5.57;;
16346;SDS011;8283;48.504;13.734;2023-02-28T09:36:22;7.30;;;5.35;;
16346;SDS011;8283;48.504;13.734;2023-02-28T09:39:07;7.28;;;5.18;;
16346;SDS011;8283;48.504;13.734;2023-02-28T09:41:54;8.20;;;5.72;;
16346;SDS011;8283;48.504;13.734;2023-02-28T09:44:43;6.32;;;4.90;;
16346;SDS011;8283;48.504;13.734;2023-02-28T09:47:32;7.50;;;5.57;;
16346;SDS011;8283;48.504;13.734;2023-02-28T09:50:23;7.40;;;5.75;;
16346;SDS011;8283;48.504;13.734;2023-02-28T09:53:21;8.73;;;5.82;;
16346;SDS011;8283;48.504;13.734;2023-02-28T09:56:14;8.35;;;6.03;;
16346;SDS011;8283;48.504;13.734;2023-02-28T10:04:49;8.15;;;6.07;;
16346;SDS011;8283;48.504;13.734;2023-02-28T10:10:53;9.13;;;5.90;;
16346;SDS011;8283;48.504;13.734;2023-02-28T10:16:35;9.38;;;6.32;;
16346;SDS011;8283;48.504;13.734;2023-02-28T10:19:33;7.32;;;5.22;;
16346;SDS011;8283;48.504;13.734;2023-02-28T10:22:34;10.70;;;6.40;;
16346;SDS011;8283;48.504;13.734;2023-02-28T10:25:24;6.55;;;4.93;;
16346;SDS011;8283;48.504;13.734;2023-02-28T10:28:11;9.35;;;6.30;;
16346;SDS011;8283;48.504;13.734;2023-02-28T10:30:57;7.43;;;5.90;;
16346;SDS011;8283;48.504;13.734;2023-02-28T10:33:43;7.28;;;5.82;;
16346;SDS011;8283;48.504;13.734;2023-02-28T10:36:28;8.15;;;6.15;;
16346;SDS011;8283;48.504;13.734;2023-02-28T10:42:25;7.30;;;6.00;;
16346;SDS011;8283;48.504;13.734;2023-02-28T10:45:15;6.97;;;6.03;;
16346;SDS011;8283;48.504;13.734;2023-02-28T10:48:01;7.40;;;6.32;;
16346;SDS011;8283;48.504;13.734;2023-02-28T10:53:34;7.88;;;6.13;;
16346;SDS011;8283;48.504;13.734;2023-02-28T10:56:32;12.00;;;7.95;;
16346;SDS011;8283;48.504;13.734;2023-02-28T10:59:27;8.68;;;6.32;;
16346;SDS011;8283;48.504;13.734;2023-02-28T11:02:30;7.85;;;6.13;;
16346;SDS011;8283;48.504;13.734;2023-02-28T11:05:28;8.57;;;6.15;;
16346;SDS011;8283;48.504;13.734;2023-02-28T11:08:17;8.35;;;6.43;;
16346;SDS011;8283;48.504;13.734;2023-02-28T11:11:05;9.55;;;6.75;;
16346;SDS011;8283;48.504;13.734;2023-02-28T11:13:51;7.53;;;6.03;;
16346;SDS011;8283;48.504;13.734;2023-02-28T11:16:39;9.30;;;5.93;;
16346;SDS011;8283;48.504;13.734;2023-02-28T11:19:27;10.68;;;6.60;;
16346;SDS011;8283;48.504;13.734;2023-02-28T11:22:18;9.20;;;6.68;;
16346;SDS011;8283;48.504;13.734;2023-02-28T11:25:22;8.15;;;6.10;;
16346;SDS011;8283;48.504;13.734;2023-02-28T11:31:27;9.35;;;5.93;;
16346;SDS011;8283;48.504;13.734;2023-02-28T11:34:23;8.82;;;6.68;;
16346;SDS011;8283;48.504;13.734;2023-02-28T11:37:16;6.40;;;5.45;;
16346;SDS011;8283;48.504;13.734;2023-02-28T11:40:02;7.82;;;6.40;;
16346;SDS011;8283;48.504;13.734;2023-02-28T11:52:06;5.53;;;4.38;;
16346;SDS011;8283;48.504;13.734;2023-02-28T11:55:17;7.88;;;5.82;;
16346;SDS011;8283;48.504;13.734;2023-02-28T12:10:26;7.03;;;5.30;;
16346;SDS011;8283;48.504;13.734;2023-02-28T12:16:51;7.47;;;5.85;;
16346;SDS011;8283;48.504;13.734;2023-02-28T12:19:53;8.30;;;5.93;;
16346;SDS011;8283;48.504;13.734;2023-02-28T12:22:50;7.40;;;5.90;;
16346;SDS011;8283;48.504;13.734;2023-02-28T12:29:10;9.05;;;6.18;;
16346;SDS011;8283;48.504;13.734;2023-02-28T12:37:56;8.15;;;6.10;;
16346;SDS011;8283;48.504;13.734;2023-02-28T12:40:53;7.95;;;6.38;;
16346;SDS011;8283;48.504;13.734;2023-02-28T12:46:51;10.45;;;6.82;;
16346;SDS011;8283;48.504;13.734;2023-02-28T12:49:45;8.80;;;6.30;;
16346;SDS011;8283;48.504;13.734;2023-02-28T13:04:40;7.93;;;6.30;;
16346;SDS011;8283;48.504;13.734;2023-02-28T13:07:42;7.15;;;5.88;;
16346;SDS011;8283;48.504;13.734;2023-02-28T13:13:26;9.48;;;6.45;;
16346;SDS011;8283;48.504;13.734;2023-02-28T13:16:15;7.72;;;5.82;;
16346;SDS011;8283;48.504;13.734;2023-02-28T13:19:09;10.63;;;7.18;;
16346;SDS011;8283;48.504;13.734;2023-02-28T13:21:57;6.47;;;5.43;;
16346;SDS011;8283;48.504;13.734;2023-02-28T13:27:38;7.85;;;5.93;;
16346;SDS011;8283;48.504;13.734;2023-02-28T13:34:26;7.63;;;5.60;;
16346;SDS011;8283;48.504;13.734;2023-02-28T13:36:50;11.27;;;7.07;;
16346;SDS011;8283;48.504;13.734;2023-02-28T13:39:53;7.40;;;6.10;;
16346;SDS011;8283;48.504;13.734;2023-02-28T13:42:50;8.90;;;5.60;;
16346;SDS011;8283;48.504;13.734;2023-02-28T13:45:36;7.85;;;5.45;;
16346;SDS011;8283;48.504;13.734;2023-02-28T13:48:23;7.95;;;5.72;;
16346;SDS011;8283;48.504;13.734;2023-02-28T13:51:28;7.05;;;5.38;;
16346;SDS011;8283;48.504;13.734;2023-02-28T14:04:30;9.73;;;6.05;;
16346;SDS011;8283;48.504;13.734;2023-02-28T14:07:33;9.25;;;6.85;;
16346;SDS011;8283;48.504;13.734;2023-02-28T14:10:33;8.85;;;6.63;;
16346;SDS011;8283;48.504;13.734;2023-02-28T14:17:03;10.23;;;7.55;;
16346;SDS011;8283;48.504;13.734;2023-02-28T14:19:43;11.05;;;7.20;;
16346;SDS011;8283;48.504;13.734;2023-02-28T14:25:33;10.38;;;6.72;;
16346;SDS011;8283;48.504;13.734;2023-02-28T14:32:01;13.40;;;9.20;;
16346;SDS011;8283;48.504;13.734;2023-02-28T14:35:02;11.63;;;7.45;;
16346;SDS011;8283;48.504;13.734;2023-02-28T14:38:13;10.93;;;7.38;;
16346;SDS011;8283;48.504;13.734;2023-02-28T14:41:04;10.35;;;7.68;;
16346;SDS011;8283;48.504;13.734;2023-02-28T14:43:57;10.90;;;8.07;;
16346;SDS011;8283;48.504;13.734;2023-02-28T14:46:43;8.73;;;7.07;;
16346;SDS011;8283;48.504;13.734;2023-02-28T14:49:34;9.07;;;7.00;;
16346;SDS011;8283;48.504;13.734;2023-02-28T14:52:27;9.35;;;7.30;;
16346;SDS011;8283;48.504;13.734;2023-02-28T14:55:15;10.45;;;6.97;;
16346;SDS011;8283;48.504;13.734;2023-02-28T14:58:03;11.02;;;7.18;;
16346;SDS011;8283;48.504;13.734;2023-02-28T15:00:51;8.38;;;6.63;;
16346;SDS011;8283;48.504;13.734;2023-02-28T15:03:38;9.25;;;6.82;;
16346;SDS011;8283;48.504;13.734;2023-02-28T15:06:23;9.18;;;6.57;;
16346;SDS011;8283;48.504;13.734;2023-02-28T15:09:17;8.13;;;6.15;;
16346;SDS011;8283;48.504;13.734;2023-02-28T15:12:02;9.70;;;6.57;;
16346;SDS011;8283;48.504;13.734;2023-02-28T15:14:47;9.02;;;6.68;;
16346;SDS011;8283;48.504;13.734;2023-02-28T15:17:32;11.95;;;8.70;;
16346;SDS011;8283;48.504;13.734;2023-02-28T15:20:17;11.95;;;8.10;;
16346;SDS011;8283;48.504;13.734;2023-02-28T15:23:02;10.82;;;6.15;;
16346;SDS011;8283;48.504;13.734;2023-02-28T15:25:47;8.98;;;6.72;;
16346;SDS011;8283;48.504;13.734;2023-02-28T15:28:33;8.90;;;6.30;;
16346;SDS011;8283;48.504;13.734;2023-02-28T15:31:19;9.07;;;6.88;;
16346;SDS011;8283;48.504;13.734;2023-02-28T15:34:12;12.40;;;8.13;;
16346;SDS011;8283;48.504;13.734;2023-02-28T15:40:14;9.55;;;6.72;;
16346;SDS011;8283;48.504;13.734;2023-02-28T15:43:22;10.35;;;7.00;;
16346;SDS011;8283;48.504;13.734;2023-02-28T15:46:10;9.45;;;6.13;;
16346;SDS011;8283;48.504;13.734;2023-02-28T15:48:56;10.27;;;7.05;;
16346;SDS011;8283;48.504;13.734;2023-02-28T15:51:41;10.35;;;7.05;;
16346;SDS011;8283;48.504;13.734;2023-02-28T15:54:30;8.27;;;5.68;;
16346;SDS011;8283;48.504;13.734;2023-02-28T15:57:20;8.60;;;5.82;;
16346;SDS011;8283;48.504;13.734;2023-02-28T16:00:10;8.27;;;6.07;;
16346;SDS011;8283;48.504;13.734;2023-02-28T16:03:00;12.30;;;6.70;;
16346;SDS011;8283;48.504;13.734;2023-02-28T16:05:44;8.65;;;6.03;;
16346;SDS011;8283;48.504;13.734;2023-02-28T16:08:28;8.30;;;6.00;;
16346;SDS011;8283;48.504;13.734;2023-02-28T16:11:12;9.90;;;6.88;;
16346;SDS011;8283;48.504;13.734;2023-02-28T16:13:57;9.13;;;5.85;;
16346;SDS011;8283;48.504;13.734;2023-02-28T16:16:42;10.13;;;6.65;;
16346;SDS011;8283;48.504;13.734;2023-02-28T16:19:28;11.05;;;7.70;;
16346;SDS011;8283;48.504;13.734;2023-02-28T16:22:13;10.43;;;7.38;;
16346;SDS011;8283;48.504;13.734;2023-02-28T16:24:57;8.80;;;5.90;;
16346;SDS011;8283;48.504;13.734;2023-02-28T16:27:42;12.07;;;7.65;;
16346;SDS011;8283;48.504;13.734;2023-02-28T16:30:27;9.05;;;6.47;;
16346;SDS011;8283;48.504;13.734;2023-02-28T16:33:15;10.23;;;6.55;;
16346;SDS011;8283;48.504;13.734;2023-02-28T16:36:00;10.75;;;7.20;;
16346;SDS011;8283;48.504;13.734;2023-02-28T16:38:44;12.43;;;8.20;;
16346;SDS011;8283;48.504;13.734;2023-02-28T16:41:29;9.80;;;6.90;;
16346;SDS011;8283;48.504;13.734;2023-02-28T16:44:30;13.30;;;7.90;;
16346;SDS011;8283;48.504;13.734;2023-02-28T16:47:17;14.27;;;8.93;;
16346;SDS011;8283;48.504;13.734;2023-02-28T16:50:04;11.25;;;6.93;;
16346;SDS011;8283;48.504;13.734;2023-02-28T16:52:56;10.13;;;6.80;;
16346;SDS011;8283;48.504;13.734;2023-02-28T16:55:41;8.18;;;6.20;;
16346;SDS011;8283;48.504;13.734;2023-02-28T16:58:25;12.02;;;7.88;;
16346;SDS011;8283;48.504;13.734;2023-02-28T17:01:11;11.32;;;7.05;;
16346;SDS011;8283;48.504;13.734;2023-02-28T17:03:56;11.88;;;7.15;;
16346;SDS011;8283;48.504;13.734;2023-02-28T17:06:40;9.63;;;6.13;;
16346;SDS011;8283;48.504;13.734;2023-02-28T17:09:25;9.23;;;6.15;;
16346;SDS011;8283;48.504;13.734;2023-02-28T17:12:10;10.90;;;7.80;;
16346;SDS011;8283;48.504;13.734;2023-02-28T17:14:54;11.05;;;7.45;;
16346;SDS011;8283;48.504;13.734;2023-02-28T17:17:39;10.25;;;6.10;;
16346;SDS011;8283;48.504;13.734;2023-02-28T17:20:24;7.50;;;6.18;;
16346;SDS011;8283;48.504;13.734;2023-02-28T17:23:10;10.25;;;6.63;;
16346;SDS011;8283;48.504;13.734;2023-02-28T17:25:54;10.93;;;6.43;;
16346;SDS011;8283;48.504;13.734;2023-02-28T17:28:39;10.55;;;6.65;;
16346;SDS011;8283;48.504;13.734;2023-02-28T17:31:24;9.68;;;5.80;;
16346;SDS011;8283;48.504;13.734;2023-02-28T17:34:10;8.15;;;6.00;;
16346;SDS011;8283;48.504;13.734;2023-02-28T17:36:55;15.00;;;8.70;;
16346;SDS011;8283;48.504;13.734;2023-02-28T17:39:39;9.70;;;6.97;;
16346;SDS011;8283;48.504;13.734;2023-02-28T17:42:23;11.10;;;7.32;;
16346;SDS011;8283;48.504;13.734;2023-02-28T17:45:08;9.93;;;6.47;;
16346;SDS011;8283;48.504;13.734;2023-02-28T17:47:53;12.75;;;7.90;;
16346;SDS011;8283;48.504;13.734;2023-02-28T17:50:37;10.32;;;7.15;;
16346;SDS011;8283;48.504;13.734;2023-02-28T17:53:21;9.35;;;6.53;;
16346;SDS011;8283;48.504;13.734;2023-02-28T17:56:17;13.52;;;7.63;;
16346;SDS011;8283;48.504;13.734;2023-02-28T17:59:08;10.38;;;7.68;;
16346;SDS011;8283;48.504;13.734;2023-02-28T18:01:54;10.20;;;7.10;;
16346;SDS011;8283;48.504;13.734;2023-02-28T18:04:38;9.98;;;6.78;;
16346;SDS011;8283;48.504;13.734;2023-02-28T18:07:24;11.35;;;8.45;;
16346;SDS011;8283;48.504;13.734;2023-02-28T18:10:11;12.80;;;7.63;;
16346;SDS011;8283;48.504;13.734;2023-02-28T18:12:59;14.32;;;9.07;;
16346;SDS011;8283;48.504;13.734;2023-02-28T18:15:43;12.57;;;8.90;;
16346;SDS011;8283;48.504;13.734;2023-02-28T18:18:28;11.38;;;7.30;;
16346;SDS011;8283;48.504;13.734;2023-02-28T18:21:13;16.08;;;9.45;;
16346;SDS011;8283;48.504;13.734;2023-02-28T18:23:58;10.95;;;7.97;;
16346;SDS011;8283;48.504;13.734;2023-02-28T18:26:43;12.45;;;8.05;;
16346;SDS011;8283;48.504;13.734;2023-02-28T18:29:27;11.85;;;7.97;;
16346;SDS011;8283;48.504;13.734;2023-02-28T18:32:13;11.85;;;7.35;;
16346;SDS011;8283;48.504;13.734;2023-02-28T18:34:57;11.85;;;7.40;;
16346;SDS011;8283;48.504;13.734;2023-02-28T18:37:41;10.25;;;6.55;;
16346;SDS011;8283;48.504;13.734;2023-02-28T18:40:25;7.85;;;5.65;;
16346;SDS011;8283;48.504;13.734;2023-02-28T18:43:09;8.15;;;5.95;;
16346;SDS011;8283;48.504;13.734;2023-02-28T18:45:54;9.73;;;6.03;;
16346;SDS011;8283;48.504;13.734;2023-02-28T18:48:38;8.90;;;6.45;;
16346;SDS011;8283;48.504;13.734;2023-02-28T18:51:24;7.25;;;5.50;;
16346;SDS011;8283;48.504;13.734;2023-02-28T18:54:10;10.05;;;6.75;;
16346;SDS011;8283;48.504;13.734;2023-02-28T18:56:58;8.15;;;5.43;;
16346;SDS011;8283;48.504;13.734;2023-02-28T18:59:43;9.48;;;5.95;;
16346;SDS011;8283;48.504;13.734;2023-02-28T19:02:27;7.82;;;5.75;;
16346;SDS011;8283;48.504;13.734;2023-02-28T19:05:12;10.70;;;6.90;;
16346;SDS011;8283;48.504;13.734;2023-02-28T19:07:56;11.07;;;6.78;;
16346;SDS011;8283;48.504;13.734;2023-02-28T19:10:40;8.68;;;5.63;;